Carnival Victory — 3FFL8 — position and weather

sailwx.info

Track history (hours):
 
Tides and Currents Weather Stations Pressure Air Temp Water Temp Dewpoint Dewpoint Depression Visibility Wind Speed Wind Dir Waves Ship Positions

Carnival Victory

Operator: Carnival Cruise Lines

Last reported at 2019-Jul-20 06:00 UTC. Time now 2019-Jul-20 13:54 UTC.
Position N 26°06' W 078°30'.

Type: Passenger vessel. MMSI: 355263000.

Wind from 090 at 15 knots

Barometer 1017.9 mb
Air temperature 27.0 ° C
Visibility: greater than 10.8 NM
Dewpoint 24.3 ° C
Water temperature 31.0 ° C

Date/timePositionNaut miles runAvg speedWind from/ knotsBaromVisibWave heightAir tempDewpointWater temp
2019-Jul-20 06:00N 26°06' W 078°30'3711.1 090 / 151017.910.8 27.024.331.0
2019-Jul-20 02:42N 26°18' W 079°09'210.9
2019-Jul-20 02:28N 26°16' W 079°11'510.5
2019-Jul-20 02:00N 26°13' W 079°15'510.7
2019-Jul-20 01:30N 26°10' W 079°20'511.0
2019-Jul-20 01:00N 26°07' W 079°25'7489.3
2019-Jul-20 01:00N 26°00' W 079°24'714.6 050 / 71017.6 29.026.330.0
2019-Jul-20 00:30N 26°04' W 079°30'510.3
2019-Jul-20 00:00N 26°02' W 079°35'510.0
2019-Jul-19 23:30N 25°60' W 079°40'510.4
2019-Jul-19 23:00N 25°57' W 079°45'510.5
2019-Jul-19 22:30N 25°54' W 079°50'510.6
2019-Jul-19 22:00N 25°51' W 079°55'510.6
2019-Jul-19 21:30N 25°48' W 079°60'5 9.8
2019-Jul-19 21:00N 25°46' W 080°05'5 9.3
2019-Jul-19 20:30N 25°47' W 080°10'0 0.7
2019-Jul-19 20:00N 25°47' W 080°10'0 0.0
2019-Jul-19 19:29N 25°47' W 080°10'0 0.0
2019-Jul-19 18:59N 25°47' W 080°10'0 0.0
2019-Jul-19 18:29N 25°47' W 080°10'0 0.0
2019-Jul-19 17:59N 25°47' W 080°10'0 0.0
2019-Jul-19 17:29N 25°47' W 080°10'0 0.0
2019-Jul-19 16:59N 25°47' W 080°10'0 0.0
2019-Jul-19 16:29N 25°47' W 080°10'0 0.0
2019-Jul-19 15:59N 25°47' W 080°10'0 0.0
2019-Jul-19 15:29N 25°47' W 080°10'0 0.0
2019-Jul-19 14:59N 25°47' W 080°10'0 0.0
2019-Jul-19 14:29N 25°47' W 080°10'0 0.0
2019-Jul-19 13:59N 25°47' W 080°10'0 0.0
2019-Jul-19 13:30N 25°47' W 080°10'0 0.0
2019-Jul-19 13:00N 25°47' W 080°10'0 0.0
2019-Jul-19 12:30N 25°47' W 080°10'0 0.0
2019-Jul-19 12:00N 25°47' W 080°10'0 0.0
2019-Jul-19 11:30N 25°47' W 080°10'0 0.0
2019-Jul-19 11:00N 25°47' W 080°10'1 1.5
2019-Jul-19 10:30N 25°46' W 080°09'5 9.6
2019-Jul-19 10:00N 25°46' W 080°04'5 9.1
2019-Jul-19 09:30N 25°44' W 079°60'713.0
2019-Jul-19 09:00N 25°40' W 079°54'713.4
2019-Jul-19 08:30N 25°33' W 079°53'713.1
2019-Jul-19 08:00N 25°27' W 079°52'1016.5
2019-Jul-19 07:23N 25°17' W 079°50'332 6.7
2019-Jul-17 06:00N 22°24' W 085°00'32810.9 100 / 231016.810.8 27.024.331.0
2019-Jul-15 23:57N 25°08' W 079°50'613.6
2019-Jul-15 23:30N 25°14' W 079°49'713.5
2019-Jul-15 23:00N 25°21' W 079°47'713.4
2019-Jul-15 22:30N 25°27' W 079°50'713.6
2019-Jul-15 22:00N 25°33' W 079°53'713.5
2019-Jul-15 21:30N 25°40' W 079°56'713.7
2019-Jul-15 21:00N 25°45' W 080°01'611.5
2019-Jul-15 20:30N 25°46' W 080°07'3 5.8
2019-Jul-15 20:00N 25°47' W 080°10'0 0.0
2019-Jul-15 19:29N 25°47' W 080°10'0 0.0
2019-Jul-15 18:59N 25°47' W 080°10'0 0.0
2019-Jul-15 18:26N 25°47' W 080°10'0 0.0
2019-Jul-15 17:59N 25°47' W 080°10'0 0.0
2019-Jul-15 17:29N 25°47' W 080°10'0 0.0
2019-Jul-15 16:59N 25°47' W 080°10'0 0.0
2019-Jul-15 16:29N 25°47' W 080°10'0 0.0
2019-Jul-15 15:59N 25°47' W 080°10'0 0.0
2019-Jul-15 15:29N 25°47' W 080°10'0 0.0
2019-Jul-15 14:59N 25°47' W 080°10'0 0.0
2019-Jul-15 14:23N 25°47' W 080°10'0 0.0
2019-Jul-15 13:59N 25°47' W 080°10'0 0.0
2019-Jul-15 13:23N 25°47' W 080°10'0 0.0
2019-Jul-15 12:59N 25°47' W 080°10'0 0.0
2019-Jul-15 12:23N 25°47' W 080°10'0 0.0
2019-Jul-15 11:59N 25°47' W 080°10'0 0.0
2019-Jul-15 11:29N 25°47' W 080°10'0 0.0
2019-Jul-15 11:00N 25°47' W 080°10'1 1.5
2019-Jul-15 10:31N 25°47' W 080°11'3 6.6
2019-Jul-15 10:01N 25°46' W 080°08'511.0
2019-Jul-15 09:30N 25°47' W 080°02'5 9.2
2019-Jul-15 09:00N 25°49' W 079°57'815.2
2019-Jul-15 08:30N 25°53' W 079°50'815.5
2019-Jul-15 08:00N 25°56' W 079°42'815.9
2019-Jul-15 07:30N 25°60' W 079°34'816.1
2019-Jul-15 07:00N 26°04' W 079°26'816.5
2019-Jul-15 06:30N 26°07' W 079°18'1222.8
2019-Jul-15 06:00N 26°12' W 079°06'158 5.7 100 / 141019.210.8 27.024.330.0
2019-Jul-14 02:00N 25°48' W 076°12'165 7.0 090 / 51020.1 27.024.330.0
2019-Jul-13 02:23N 26°15' W 079°13'4 9.4
2019-Jul-13 02:00N 26°13' W 079°16'510.3
2019-Jul-13 01:30N 26°11' W 079°21'510.3
2019-Jul-13 01:00N 26°08' W 079°26'510.2
2019-Jul-13 00:30N 26°05' W 079°30'5 9.2
2019-Jul-13 00:00N 26°03' W 079°35'510.8
2019-Jul-12 23:30N 25°60' W 079°40'510.8
2019-Jul-12 23:00N 25°57' W 079°45'510.6
2019-Jul-12 22:30N 25°54' W 079°50'510.9
2019-Jul-12 22:00N 25°51' W 079°55'612.5
2019-Jul-12 21:30N 25°48' W 080°01'510.9
2019-Jul-12 21:01N 25°46' W 080°06'4 7.6
2019-Jul-12 20:30N 25°47' W 080°10'0 0.3
2019-Jul-12 19:54N 25°47' W 080°10'0 0.0
2019-Jul-12 19:27N 25°47' W 080°10'0 0.0
2019-Jul-12 18:57N 25°47' W 080°10'0 0.0
2019-Jul-12 18:27N 25°47' W 080°10'0 0.0
2019-Jul-12 17:57N 25°47' W 080°10'0 0.0
2019-Jul-12 17:27N 25°47' W 080°10'0 0.0
2019-Jul-12 16:57N 25°47' W 080°10'0 0.0
2019-Jul-12 16:30N 25°47' W 080°10'0 0.0
2019-Jul-12 16:00N 25°47' W 080°10'0 0.0
2019-Jul-12 15:30N 25°47' W 080°10'0 0.0
2019-Jul-12 15:00N 25°47' W 080°10'0 0.0
2019-Jul-12 14:30N 25°47' W 080°10'0 0.0
2019-Jul-12 14:00N 25°47' W 080°10'0 0.0
2019-Jul-12 13:30N 25°47' W 080°10'0 0.0
2019-Jul-12 13:00N 25°47' W 080°10'0 0.0
2019-Jul-12 12:30N 25°47' W 080°10'0 0.0
2019-Jul-12 12:00N 25°47' W 080°10'0 0.0
2019-Jul-12 11:30N 25°47' W 080°10'0 0.0
2019-Jul-12 11:00N 25°47' W 080°10'1 1.5
2019-Jul-12 10:30N 25°46' W 080°09'5 9.2
2019-Jul-12 10:00N 25°46' W 080°04'5 9.7
2019-Jul-12 09:30N 25°44' W 079°59'510.8
2019-Jul-12 09:01N 25°41' W 079°55'611.5
2019-Jul-12 08:30N 25°35' W 079°53'713.6
2019-Jul-12 08:00N 25°28' W 079°52'816.1
2019-Jul-12 07:30N 25°20' W 079°51'2617.4
2019-Jul-12 06:00N 24°54' W 079°54'8517.0 070 / 21015.910.8 27.024.331.0
2019-Jul-12 01:00N 23°54' W 081°00'21616.6 360 / 11015.4 27.024.330.0
2019-Jul-11 12:00N 22°42' W 084°42'17919.0 140 / 151014.710.8 29.025.330.0
2019-Jul-11 02:35N 20°35' W 086°57'6 0.6
2019-Jul-10 15:34N 20°29' W 086°59'9 8.8
2019-Jul-10 14:34N 20°37' W 086°56'  
Track history (hours):
 
Tides and Currents Weather Stations Pressure Air Temp Water Temp Dewpoint Dewpoint Depression Visibility Wind Speed Wind Dir Waves Ship Positions

Carnival Victory

Operator: Carnival Cruise Lines

Last reported at 2019-Jul-20 06:00 UTC. Time now 2019-Jul-20 13:54 UTC.
Position N 26°06' W 078°30'.

Type: Passenger vessel. MMSI: 355263000.

Wind from 090 at 15 knots

Barometer 1017.9 mb
Air temperature 27.0 ° C
Visibility: greater than 10.8 NM
Dewpoint 24.3 ° C
Water temperature 31.0 ° C

Date/timePositionNaut miles runAvg speedWind from/ knotsBaromVisibWave heightAir tempDewpointWater temp
2019-Jul-20 06:00N 26°06' W 078°30'3711.1 090 / 151017.910.8 27.024.331.0
2019-Jul-20 02:42N 26°18' W 079°09'210.9
2019-Jul-20 02:28N 26°16' W 079°11'510.5
2019-Jul-20 02:00N 26°13' W 079°15'510.7
2019-Jul-20 01:30N 26°10' W 079°20'511.0
2019-Jul-20 01:00N 26°07' W 079°25'7489.3
2019-Jul-20 01:00N 26°00' W 079°24'714.6 050 / 71017.6 29.026.330.0
2019-Jul-20 00:30N 26°04' W 079°30'510.3
2019-Jul-20 00:00N 26°02' W 079°35'510.0
2019-Jul-19 23:30N 25°60' W 079°40'510.4
2019-Jul-19 23:00N 25°57' W 079°45'510.5
2019-Jul-19 22:30N 25°54' W 079°50'510.6
2019-Jul-19 22:00N 25°51' W 079°55'510.6
2019-Jul-19 21:30N 25°48' W 079°60'5 9.8
2019-Jul-19 21:00N 25°46' W 080°05'5 9.3
2019-Jul-19 20:30N 25°47' W 080°10'0 0.7
2019-Jul-19 20:00N 25°47' W 080°10'0 0.0
2019-Jul-19 19:29N 25°47' W 080°10'0 0.0
2019-Jul-19 18:59N 25°47' W 080°10'0 0.0
2019-Jul-19 18:29N 25°47' W 080°10'0 0.0
2019-Jul-19 17:59N 25°47' W 080°10'0 0.0
2019-Jul-19 17:29N 25°47' W 080°10'0 0.0
2019-Jul-19 16:59N 25°47' W 080°10'0 0.0
2019-Jul-19 16:29N 25°47' W 080°10'0 0.0
2019-Jul-19 15:59N 25°47' W 080°10'0 0.0
2019-Jul-19 15:29N 25°47' W 080°10'0 0.0
2019-Jul-19 14:59N 25°47' W 080°10'0 0.0
2019-Jul-19 14:29N 25°47' W 080°10'0 0.0
2019-Jul-19 13:59N 25°47' W 080°10'0 0.0
2019-Jul-19 13:30N 25°47' W 080°10'0 0.0
2019-Jul-19 13:00N 25°47' W 080°10'0 0.0
2019-Jul-19 12:30N 25°47' W 080°10'0 0.0
2019-Jul-19 12:00N 25°47' W 080°10'0 0.0
2019-Jul-19 11:30N 25°47' W 080°10'0 0.0
2019-Jul-19 11:00N 25°47' W 080°10'1 1.5
2019-Jul-19 10:30N 25°46' W 080°09'5 9.6
2019-Jul-19 10:00N 25°46' W 080°04'5 9.1
2019-Jul-19 09:30N 25°44' W 079°60'713.0
2019-Jul-19 09:00N 25°40' W 079°54'713.4
2019-Jul-19 08:30N 25°33' W 079°53'713.1
2019-Jul-19 08:00N 25°27' W 079°52'1016.5
2019-Jul-19 07:23N 25°17' W 079°50'332 6.7
2019-Jul-17 06:00N 22°24' W 085°00'32810.9 100 / 231016.810.8 27.024.331.0
2019-Jul-15 23:57N 25°08' W 079°50'613.6
2019-Jul-15 23:30N 25°14' W 079°49'713.5
2019-Jul-15 23:00N 25°21' W 079°47'713.4
2019-Jul-15 22:30N 25°27' W 079°50'713.6
2019-Jul-15 22:00N 25°33' W 079°53'713.5
2019-Jul-15 21:30N 25°40' W 079°56'713.7
2019-Jul-15 21:00N 25°45' W 080°01'611.5
2019-Jul-15 20:30N 25°46' W 080°07'3 5.8
2019-Jul-15 20:00N 25°47' W 080°10'0 0.0
2019-Jul-15 19:29N 25°47' W 080°10'0 0.0
2019-Jul-15 18:59N 25°47' W 080°10'0 0.0
2019-Jul-15 18:26N 25°47' W 080°10'0 0.0
2019-Jul-15 17:59N 25°47' W 080°10'0 0.0
2019-Jul-15 17:29N 25°47' W 080°10'0 0.0
2019-Jul-15 16:59N 25°47' W 080°10'0 0.0
2019-Jul-15 16:29N 25°47' W 080°10'0 0.0
2019-Jul-15 15:59N 25°47' W 080°10'0 0.0
2019-Jul-15 15:29N 25°47' W 080°10'0 0.0
2019-Jul-15 14:59N 25°47' W 080°10'0 0.0
2019-Jul-15 14:23N 25°47' W 080°10'0 0.0
2019-Jul-15 13:59N 25°47' W 080°10'0 0.0
2019-Jul-15 13:23N 25°47' W 080°10'0 0.0
2019-Jul-15 12:59N 25°47' W 080°10'0 0.0
2019-Jul-15 12:23N 25°47' W 080°10'0 0.0
2019-Jul-15 11:59N 25°47' W 080°10'0 0.0
2019-Jul-15 11:29N 25°47' W 080°10'0 0.0
2019-Jul-15 11:00N 25°47' W 080°10'1 1.5
2019-Jul-15 10:31N 25°47' W 080°11'3 6.6
2019-Jul-15 10:01N 25°46' W 080°08'511.0
2019-Jul-15 09:30N 25°47' W 080°02'5 9.2
2019-Jul-15 09:00N 25°49' W 079°57'815.2
2019-Jul-15 08:30N 25°53' W 079°50'815.5
2019-Jul-15 08:00N 25°56' W 079°42'815.9
2019-Jul-15 07:30N 25°60' W 079°34'816.1
2019-Jul-15 07:00N 26°04' W 079°26'816.5
2019-Jul-15 06:30N 26°07' W 079°18'1222.8
2019-Jul-15 06:00N 26°12' W 079°06'158 5.7 100 / 141019.210.8 27.024.330.0
2019-Jul-14 02:00N 25°48' W 076°12'165 7.0 090 / 51020.1 27.024.330.0
2019-Jul-13 02:23N 26°15' W 079°13'4 9.4
2019-Jul-13 02:00N 26°13' W 079°16'510.3
2019-Jul-13 01:30N 26°11' W 079°21'510.3
2019-Jul-13 01:00N 26°08' W 079°26'510.2
2019-Jul-13 00:30N 26°05' W 079°30'5 9.2
2019-Jul-13 00:00N 26°03' W 079°35'510.8
2019-Jul-12 23:30N 25°60' W 079°40'510.8
2019-Jul-12 23:00N 25°57' W 079°45'510.6
2019-Jul-12 22:30N 25°54' W 079°50'510.9
2019-Jul-12 22:00N 25°51' W 079°55'612.5
2019-Jul-12 21:30N 25°48' W 080°01'510.9
2019-Jul-12 21:01N 25°46' W 080°06'4 7.6
2019-Jul-12 20:30N 25°47' W 080°10'0 0.3
2019-Jul-12 19:54N 25°47' W 080°10'0 0.0
2019-Jul-12 19:27N 25°47' W 080°10'0 0.0
2019-Jul-12 18:57N 25°47' W 080°10'0 0.0
2019-Jul-12 18:27N 25°47' W 080°10'0 0.0
2019-Jul-12 17:57N 25°47' W 080°10'0 0.0
2019-Jul-12 17:27N 25°47' W 080°10'0 0.0
2019-Jul-12 16:57N 25°47' W 080°10'0 0.0
2019-Jul-12 16:30N 25°47' W 080°10'0 0.0
2019-Jul-12 16:00N 25°47' W 080°10'0 0.0
2019-Jul-12 15:30N 25°47' W 080°10'0 0.0
2019-Jul-12 15:00N 25°47' W 080°10'0 0.0
2019-Jul-12 14:30N 25°47' W 080°10'0 0.0
2019-Jul-12 14:00N 25°47' W 080°10'0 0.0
2019-Jul-12 13:30N 25°47' W 080°10'0 0.0
2019-Jul-12 13:00N 25°47' W 080°10'0 0.0
2019-Jul-12 12:30N 25°47' W 080°10'0 0.0
2019-Jul-12 12:00N 25°47' W 080°10'0 0.0
2019-Jul-12 11:30N 25°47' W 080°10'0 0.0
2019-Jul-12 11:00N 25°47' W 080°10'1 1.5
2019-Jul-12 10:30N 25°46' W 080°09'5 9.2
2019-Jul-12 10:00N 25°46' W 080°04'5 9.7
2019-Jul-12 09:30N 25°44' W 079°59'510.8
2019-Jul-12 09:01N 25°41' W 079°55'611.5
2019-Jul-12 08:30N 25°35' W 079°53'713.6
2019-Jul-12 08:00N 25°28' W 079°52'816.1
2019-Jul-12 07:30N 25°20' W 079°51'2617.4
2019-Jul-12 06:00N 24°54' W 079°54'8517.0 070 / 21015.910.8 27.024.331.0
2019-Jul-12 01:00N 23°54' W 081°00'21616.6 360 / 11015.4 27.024.330.0
2019-Jul-11 12:00N 22°42' W 084°42'17919.0 140 / 151014.710.8 29.025.330.0
2019-Jul-11 02:35N 20°35' W 086°57'6 0.6
2019-Jul-10 15:34N 20°29' W 086°59'9 8.8
2019-Jul-10 14:34N 20°37' W 086°56'  

Dump ship's entire track history